Time;durP1;ratioP1;P1;durP2;ratioP2;P2;SDS_P1;SDS_P2;PMS_P1;PMS_P2;Temp;Humidity;BMP_temperature;BMP_pressure;BME280_temperature;BME280_humidity;BME280_pressure;Samples;Min_cycle;Max_cycle;Signal;HPM_P1;HPM_P2
2021/06/29 00:01:04;;;;;;;3.10;2.83;;;21.70;94.90;;;;;;5010485;28;20627;-49
2021/06/29 00:03:31;;;;;;;3.60;3.37;;;21.70;94.90;;;;;;5012735;28;20690;-49
2021/06/29 00:05:58;;;;;;;2.50;2.30;;;21.60;94.70;;;;;;5023647;28;20655;-50
2021/06/29 00:08:26;;;;;;;3.33;2.93;;;21.60;95.00;;;;;;5033435;28;20635;-49
2021/06/29 00:10:53;;;;;;;2.27;2.17;;;21.60;95.40;;;;;;5016111;28;20655;-49
2021/06/29 00:13:22;;;;;;;3.13;2.90;;;21.70;95.50;;;;;;5013672;28;20695;-49
2021/06/29 00:15:49;;;;;;;3.17;2.87;;;21.70;95.30;;;;;;5013316;28;20656;-49
2021/06/29 00:18:17;;;;;;;3.20;2.50;;;21.80;95.50;;;;;;5013354;28;20666;-50
2021/06/29 00:20:44;;;;;;;3.13;2.90;;;22.00;95.50;;;;;;5013237;28;20667;-49
2021/06/29 00:23:11;;;;;;;3.40;2.53;;;22.20;95.00;;;;;;5013077;28;21233;-49
2021/06/29 00:25:38;;;;;;;2.93;2.73;;;22.40;94.70;;;;;;5013919;28;20648;-49
2021/06/29 00:28:05;;;;;;;2.93;2.73;;;22.30;94.40;;;;;;5013286;28;20658;-49
2021/06/29 00:30:34;;;;;;;3.30;3.00;;;22.20;94.80;;;;;;4995529;28;20621;-49
2021/06/29 00:33:01;;;;;;;3.60;3.30;;;21.90;95.20;;;;;;5012133;28;20692;-49
2021/06/29 00:35:28;;;;;;;6.23;3.80;;;21.90;95.60;;;;;;4993648;28;20667;-50
2021/06/29 00:37:56;;;;;;;4.50;3.80;;;21.90;95.70;;;;;;4993390;28;20664;-50
2021/06/29 00:40:23;;;;;;;4.57;3.60;;;22.00;95.70;;;;;;5012599;28;20659;-50
2021/06/29 00:42:50;;;;;;;3.83;3.10;;;21.90;95.70;;;;;;5012451;28;21012;-50
2021/06/29 00:45:17;;;;;;;4.43;3.40;;;21.90;95.90;;;;;;5012907;28;20659;-49
2021/06/29 00:47:46;;;;;;;4.33;3.93;;;21.90;96.00;;;;;;5012879;28;20659;-50
2021/06/29 00:50:15;;;;;;;3.80;3.50;;;21.80;96.10;;;;;;5011794;28;20726;-49
2021/06/29 00:52:42;;;;;;;5.93;3.93;;;21.90;96.10;;;;;;5012318;28;20709;-49
2021/06/29 00:55:12;;;;;;;5.60;5.10;;;22.00;96.10;;;;;;5012188;28;20730;-50
2021/06/29 00:57:40;;;;;;;5.10;4.70;;;21.90;96.00;;;;;;5012393;28;20659;-49
2021/06/29 01:00:09;;;;;;;5.20;4.80;;;21.90;96.10;;;;;;5012676;28;20670;-50
2021/06/29 01:02:36;;;;;;;4.70;4.30;;;21.90;96.10;;;;;;5011738;28;20652;-49
2021/06/29 01:05:06;;;;;;;5.50;4.50;;;21.90;96.20;;;;;;5012086;28;20687;-49
2021/06/29 01:07:33;;;;;;;11.80;5.40;;;21.90;96.40;;;;;;5011795;28;20643;-50
2021/06/29 01:10:01;;;;;;;5.03;4.30;;;21.90;96.60;;;;;;5012169;28;20638;-50
2021/06/29 01:12:28;;;;;;;4.50;4.10;;;21.90;96.40;;;;;;5011064;28;20687;-50
2021/06/29 01:14:55;;;;;;;5.57;5.23;;;21.80;96.30;;;;;;5010578;28;20766;-49
2021/06/29 01:17:24;;;;;;;4.43;4.13;;;21.80;96.50;;;;;;5011340;28;20655;-50
2021/06/29 01:19:52;;;;;;;5.63;4.70;;;21.80;96.60;;;;;;5011291;28;20630;-49
2021/06/29 01:22:23;;;;;;;4.70;4.33;;;21.80;96.60;;;;;;5011533;28;20659;-49
2021/06/29 01:24:52;;;;;;;4.93;4.53;;;21.80;96.80;;;;;;5011682;28;21181;-47
2021/06/29 01:32:48;;;;;;;6.20;5.60;;;21.80;96.50;;;;;;5011974;28;20672;-47
2021/06/29 01:35:15;;;;;;;7.27;6.67;;;21.80;96.80;;;;;;5010646;28;20654;-48
2021/06/29 01:37:44;;;;;;;4.63;4.13;;;21.80;96.60;;;;;;5010679;28;20667;-47
2021/06/29 01:40:15;;;;;;;6.80;5.17;;;21.70;96.60;;;;;;5010720;28;21038;-49
2021/06/29 01:42:42;;;;;;;6.50;6.00;;;21.70;96.90;;;;;;5009980;28;20654;-47
2021/06/29 01:45:10;;;;;;;7.27;6.20;;;21.70;97.00;;;;;;5011907;28;20694;-49
2021/06/29 01:47:51;;;;;;;5.80;5.30;;;21.70;96.90;;;;;;5010944;28;20682;-47
2021/06/29 01:50:18;;;;;;;5.63;5.13;;;21.70;97.00;;;;;;5010926;28;21171;-48
2021/06/29 01:52:47;;;;;;;7.63;6.53;;;21.60;97.10;;;;;;4995402;28;20733;-49
2021/06/29 01:55:15;;;;;;;5.30;4.90;;;21.50;97.00;;;;;;5011069;28;20651;-50
2021/06/29 01:57:46;;;;;;;6.30;5.77;;;21.50;97.10;;;;;;5010592;28;21041;-50
2021/06/29 02:00:14;;;;;;;7.00;6.10;;;21.50;97.20;;;;;;5011827;28;20647;-50
2021/06/29 02:02:41;;;;;;;5.97;5.37;;;21.50;97.10;;;;;;5011564;28;20636;-50
2021/06/29 02:05:10;;;;;;;5.73;5.33;;;21.50;97.20;;;;;;5010734;28;20698;-50
2021/06/29 02:07:37;;;;;;;6.90;5.57;;;21.50;97.10;;;;;;5010670;28;20978;-49
2021/06/29 02:10:07;;;;;;;6.20;5.63;;;21.50;97.20;;;;;;5010424;28;20735;-50
2021/06/29 02:12:34;;;;;;;6.10;5.60;;;21.50;97.20;;;;;;5010294;28;20992;-50
2021/06/29 02:15:01;;;;;;;6.50;5.90;;;21.50;97.30;;;;;;5008294;28;20687;-49
2021/06/29 02:17:28;;;;;;;6.60;5.53;;;21.50;97.40;;;;;;5005622;28;20668;-50
2021/06/29 02:19:55;;;;;;;6.47;5.97;;;21.50;97.50;;;;;;5010155;28;20670;-49
2021/06/29 02:22:22;;;;;;;6.50;6.00;;;21.50;97.50;;;;;;5011126;28;20996;-49
2021/06/29 02:24:50;;;;;;;7.50;6.90;;;21.60;97.50;;;;;;5009334;28;20668;-48
2021/06/29 02:27:18;;;;;;;6.07;5.53;;;21.60;97.40;;;;;;5010413;28;20958;-49
2021/06/29 02:29:45;;;;;;;6.57;5.93;;;21.70;97.40;;;;;;5010091;28;20656;-49
2021/06/29 02:32:13;;;;;;;7.30;6.13;;;21.70;97.40;;;;;;5010432;28;20628;-50
2021/06/29 02:34:40;;;;;;;7.10;6.40;;;21.70;97.20;;;;;;5009545;28;20767;-50
2021/06/29 02:37:07;;;;;;;7.27;6.67;;;21.70;97.20;;;;;;5010663;28;21192;-49
2021/06/29 02:39:34;;;;;;;7.80;7.30;;;21.70;97.40;;;;;;5010126;28;20675;-49
2021/06/29 02:42:01;;;;;;;7.17;6.57;;;21.70;97.30;;;;;;5009953;28;21149;-48
2021/06/29 02:44:32;;;;;;;6.50;5.77;;;21.70;97.30;;;;;;5010325;28;20676;-49
2021/06/29 02:46:59;;;;;;;7.93;7.13;;;21.70;97.30;;;;;;5010414;28;20667;-49
2021/06/29 02:49:26;;;;;;;11.77;7.03;;;21.70;97.20;;;;;;5009834;28;21148;-50
2021/06/29 02:51:53;;;;;;;6.30;5.80;;;21.80;97.20;;;;;;5010347;28;20635;-50
2021/06/29 02:54:21;;;;;;;9.80;6.83;;;21.80;97.10;;;;;;5010233;28;20730;-48
2021/06/29 02:56:48;;;;;;;5.47;5.07;;;21.80;97.00;;;;;;5010522;28;20651;-48
2021/06/29 02:59:16;;;;;;;6.20;5.63;;;21.80;96.90;;;;;;5010212;28;20652;-49
2021/06/29 03:01:45;;;;;;;7.10;6.40;;;22.00;96.70;;;;;;5009998;28;20652;-49
2021/06/29 03:04:12;;;;;;;6.70;5.70;;;22.10;96.40;;;;;;5010255;28;20806;-49
2021/06/29 03:06:39;;;;;;;6.20;5.60;;;22.10;96.30;;;;;;5010156;28;20670;-50
2021/06/29 03:09:07;;;;;;;6.30;5.80;;;22.00;96.30;;;;;;5009481;28;20627;-49
2021/06/29 03:11:34;;;;;;;5.80;5.30;;;22.10;96.60;;;;;;5009668;28;20656;-49
2021/06/29 03:14:01;;;;;;;5.40;5.00;;;22.10;96.10;;;;;;5009611;28;20695;-49
2021/06/29 03:16:28;;;;;;;5.20;4.43;;;22.20;96.00;;;;;;5009583;28;20770;-49
2021/06/29 03:18:57;;;;;;;5.43;5.00;;;22.30;95.90;;;;;;5009078;28;20651;-49
2021/06/29 03:21:24;;;;;;;5.30;4.90;;;22.30;95.60;;;;;;5010124;28;20664;-49
2021/06/29 03:23:52;;;;;;;5.80;5.40;;;22.30;95.70;;;;;;5008776;28;20691;-49
2021/06/29 03:26:19;;;;;;;5.60;5.10;;;22.20;95.60;;;;;;4989914;28;20716;-49
2021/06/29 03:28:46;;;;;;;5.20;4.80;;;22.30;95.80;;;;;;5007986;28;21150;-50
2021/06/29 03:31:13;;;;;;;5.10;4.70;;;22.30;95.70;;;;;;5009554;28;21175;-48
2021/06/29 03:33:40;;;;;;;4.40;4.03;;;22.30;95.60;;;;;;5009667;28;20715;-48
2021/06/29 03:36:09;;;;;;;5.47;4.37;;;22.10;95.60;;;;;;5008896;28;20616;-48
2021/06/29 03:38:36;;;;;;;4.53;4.03;;;22.20;95.70;;;;;;5009627;28;20670;-48
2021/06/29 03:41:04;;;;;;;4.70;4.40;;;22.10;95.90;;;;;;5008874;28;20663;-47
2021/06/29 03:43:34;;;;;;;5.50;4.67;;;22.10;95.70;;;;;;5008621;28;20702;-48
2021/06/29 03:46:01;;;;;;;5.20;4.80;;;22.00;95.90;;;;;;5009329;28;20723;-48
2021/06/29 03:48:29;;;;;;;5.00;4.60;;;21.90;96.00;;;;;;5009088;28;21059;-48
2021/06/29 03:50:56;;;;;;;5.20;3.90;;;21.90;96.10;;;;;;5008566;28;20941;-48
2021/06/29 03:53:25;;;;;;;3.90;3.60;;;21.90;96.20;;;;;;5008594;28;21208;-47
2021/06/29 03:55:52;;;;;;;4.63;4.30;;;21.90;96.10;;;;;;5009259;28;20666;-48
2021/06/29 03:58:19;;;;;;;4.47;4.07;;;21.90;96.00;;;;;;5008387;28;20652;-48
2021/06/29 04:00:47;;;;;;;4.53;4.23;;;21.90;96.00;;;;;;5009343;28;20655;-47
2021/06/29 04:03:14;;;;;;;4.07;3.73;;;21.90;95.90;;;;;;5009268;28;20656;-48
2021/06/29 04:05:41;;;;;;;3.97;3.67;;;21.90;95.80;;;;;;5008554;28;20643;-48
2021/06/29 04:08:08;;;;;;;3.80;3.60;;;21.80;95.70;;;;;;5007222;28;21297;-48
2021/06/29 04:10:37;;;;;;;3.13;2.93;;;22.00;95.50;;;;;;5007691;28;21007;-47
2021/06/29 04:13:04;;;;;;;5.90;3.97;;;22.00;95.30;;;;;;5009220;28;20683;-48
2021/06/29 04:15:31;;;;;;;3.20;2.90;;;22.10;95.30;;;;;;5009832;28;20686;-49
2021/06/29 04:17:59;;;;;;;3.63;3.27;;;22.10;95.30;;;;;;5009261;28;20742;-48
2021/06/29 04:20:26;;;;;;;6.53;3.43;;;22.20;94.80;;;;;;5009217;28;20778;-48
2021/06/29 04:22:53;;;;;;;3.07;2.87;;;22.20;94.40;;;;;;5008479;28;20671;-50
2021/06/29 04:25:20;;;;;;;3.77;3.47;;;22.10;94.40;;;;;;5009363;28;20935;-50
2021/06/29 04:27:49;;;;;;;3.50;3.30;;;22.10;94.30;;;;;;5009089;28;20643;-50
2021/06/29 04:30:17;;;;;;;4.53;3.17;;;22.10;94.70;;;;;;5008270;28;20664;-48
2021/06/29 04:32:44;;;;;;;8.43;4.10;;;22.20;94.50;;;;;;5008878;28;20740;-49
2021/06/29 04:35:12;;;;;;;3.43;3.13;;;22.20;94.20;;;;;;5009286;28;20691;-48
2021/06/29 04:37:39;;;;;;;7.77;3.50;;;22.10;94.30;;;;;;4990609;28;20624;-49
2021/06/29 04:40:07;;;;;;;4.80;3.30;;;22.00;94.20;;;;;;5008420;28;20652;-48
2021/06/29 04:42:34;;;;;;;3.23;2.93;;;22.10;94.50;;;;;;5008470;28;20670;-48
2021/06/29 04:45:03;;;;;;;3.70;3.33;;;22.10;94.50;;;;;;5019563;28;20744;-48
2021/06/29 04:47:36;;;;;;;3.60;3.30;;;22.20;94.40;;;;;;5028723;28;20650;-48
2021/06/29 04:50:05;;;;;;;3.43;3.20;;;22.30;94.30;;;;;;5032305;28;20697;-49
2021/06/29 04:52:32;;;;;;;3.93;3.60;;;22.30;94.10;;;;;;5012962;28;20739;-48
2021/06/29 04:54:59;;;;;;;4.13;2.97;;;22.40;93.80;;;;;;5012622;28;20710;-48
2021/06/29 04:57:27;;;;;;;3.50;3.20;;;22.30;93.90;;;;;;5025506;28;20994;-49
2021/06/29 04:59:54;;;;;;;3.60;3.30;;;22.40;94.10;;;;;;5031955;28;20658;-50
2021/06/29 05:02:22;;;;;;;8.33;3.40;;;22.50;93.80;;;;;;5015483;28;20663;-48
2021/06/29 05:04:50;;;;;;;3.43;3.13;;;22.30;93.80;;;;;;5032069;28;20651;-49
2021/06/29 05:07:17;;;;;;;4.03;3.73;;;22.40;94.20;;;;;;5021319;28;20755;-50
2021/06/29 05:09:44;;;;;;;4.00;3.70;;;22.50;94.00;;;;;;5011964;28;20627;-49
2021/06/29 05:12:12;;;;;;;3.93;3.63;;;22.40;93.90;;;;;;5011933;28;21047;-49
2021/06/29 05:14:39;;;;;;;4.10;3.07;;;22.30;94.00;;;;;;5011746;28;20773;-49
2021/06/29 05:17:07;;;;;;;9.23;4.10;;;22.20;94.10;;;;;;5012035;28;20648;-49
2021/06/29 05:19:36;;;;;;;4.10;3.80;;;22.20;94.30;;;;;;5014493;28;21030;-48
2021/06/29 05:22:03;;;;;;;3.73;3.27;;;22.30;94.30;;;;;;5025488;28;20673;-49
2021/06/29 05:24:30;;;;;;;6.00;4.10;;;22.30;94.20;;;;;;5031119;28;21241;-50
2021/06/29 05:26:58;;;;;;;5.87;3.70;;;22.40;94.20;;;;;;5014083;28;20671;-48
2021/06/29 05:29:25;;;;;;;3.70;3.40;;;22.30;94.10;;;;;;5011441;28;20651;-49
2021/06/29 05:31:52;;;;;;;5.33;4.00;;;22.20;94.20;;;;;;5011055;28;20668;-49
2021/06/29 05:34:19;;;;;;;4.83;4.27;;;22.30;94.30;;;;;;5011951;28;20695;-49
2021/06/29 05:36:48;;;;;;;3.30;3.00;;;22.40;94.00;;;;;;5011747;28;20659;-48
2021/06/29 05:39:17;;;;;;;4.00;3.67;;;22.50;94.10;;;;;;5012573;28;20669;-49
2021/06/29 05:41:44;;;;;;;3.80;3.30;;;22.60;93.80;;;;;;5010979;28;20682;-48
2021/06/29 05:44:11;;;;;;;4.63;3.70;;;22.80;93.70;;;;;;5012084;28;20660;-48
2021/06/29 05:46:40;;;;;;;3.50;3.30;;;22.80;93.40;;;;;;5011988;28;20659;-48
2021/06/29 05:49:10;;;;;;;3.80;3.40;;;22.60;93.40;;;;;;4994269;28;20652;-48
2021/06/29 05:51:37;;;;;;;3.70;3.40;;;22.70;93.70;;;;;;4992562;28;20705;-49
2021/06/29 05:54:06;;;;;;;3.40;3.10;;;22.90;93.50;;;;;;5012039;28;20980;-46
2021/06/29 05:56:33;;;;;;;5.93;3.70;;;22.80;93.30;;;;;;5011701;28;21088;-48
2021/06/29 05:59:00;;;;;;;3.00;2.70;;;22.90;93.10;;;;;;5010471;28;20652;-48
2021/06/29 06:01:28;;;;;;;3.43;3.10;;;23.00;93.20;;;;;;5010974;28;20933;-48
2021/06/29 06:03:55;;;;;;;3.50;3.20;;;23.00;93.20;;;;;;5016612;28;20697;-47
2021/06/29 06:06:22;;;;;;;4.77;4.37;;;22.90;93.00;;;;;;5031427;28;20639;-49
2021/06/29 06:08:49;;;;;;;6.93;4.20;;;22.90;93.20;;;;;;4996779;28;20675;-48
2021/06/29 06:11:18;;;;;;;4.73;4.07;;;22.90;93.40;;;;;;4992118;28;20653;-50
2021/06/29 06:13:46;;;;;;;4.73;4.27;;;22.90;93.40;;;;;;5001156;28;20647;-48
2021/06/29 06:16:13;;;;;;;6.00;3.83;;;23.00;93.20;;;;;;5011302;28;20693;-48
2021/06/29 06:18:42;;;;;;;5.47;3.70;;;23.00;93.20;;;;;;5011234;28;20620;-48
2021/06/29 06:21:10;;;;;;;5.13;3.17;;;23.10;93.20;;;;;;5011429;28;20667;-49
2021/06/29 06:23:37;;;;;;;5.43;3.50;;;23.10;93.20;;;;;;4992885;28;20726;-49
2021/06/29 06:26:04;;;;;;;4.37;3.97;;;23.00;93.10;;;;;;5010538;28;20660;-48
2021/06/29 06:28:33;;;;;;;4.90;4.00;;;23.00;93.20;;;;;;5010987;28;20994;-49
2021/06/29 06:31:00;;;;;;;3.70;3.40;;;22.90;93.40;;;;;;5010694;28;20659;-48
2021/06/29 06:33:27;;;;;;;5.43;4.53;;;22.90;93.60;;;;;;5011200;28;20675;-48
2021/06/29 06:35:55;;;;;;;5.30;4.90;;;22.90;93.60;;;;;;5011039;28;20691;-48
2021/06/29 06:38:22;;;;;;;5.93;4.20;;;22.90;93.50;;;;;;5010582;28;20623;-49
2021/06/29 06:40:49;;;;;;;5.17;4.67;;;23.10;93.50;;;;;;5009842;28;20930;-48
2021/06/29 06:43:16;;;;;;;4.50;4.10;;;23.00;93.40;;;;;;4994711;28;20682;-49
2021/06/29 06:45:45;;;;;;;7.00;4.30;;;23.30;93.20;;;;;;5010404;28;20624;-48
2021/06/29 06:48:12;;;;;;;5.07;4.17;;;23.40;93.00;;;;;;5010472;28;20695;-49
2021/06/29 06:50:39;;;;;;;4.37;3.97;;;23.60;92.70;;;;;;5010339;28;20661;-48
2021/06/29 06:53:06;;;;;;;3.93;3.67;;;23.50;92.70;;;;;;5009975;28;20679;-49
2021/06/29 06:55:34;;;;;;;4.30;3.90;;;23.60;92.40;;;;;;5010755;28;20664;-50
2021/06/29 06:58:01;;;;;;;5.10;4.57;;;23.40;92.70;;;;;;4992248;28;20655;-49
2021/06/29 07:00:29;;;;;;;4.93;4.50;;;23.30;92.90;;;;;;5009590;28;21213;-50
2021/06/29 07:02:58;;;;;;;4.70;4.27;;;23.10;93.10;;;;;;5010107;28;20652;-49
2021/06/29 07:05:25;;;;;;;5.50;4.90;;;23.00;93.20;;;;;;5009937;28;20648;-49
2021/06/29 07:07:53;;;;;;;9.60;4.70;;;22.90;93.60;;;;;;5010224;28;20680;-49
2021/06/29 07:10:20;;;;;;;4.40;4.00;;;22.70;93.60;;;;;;5009324;28;20624;-47
2021/06/29 07:12:47;;;;;;;4.03;3.73;;;22.90;93.80;;;;;;5009647;28;21033;-49
2021/06/29 07:15:15;;;;;;;3.83;3.53;;;23.10;93.40;;;;;;5009661;28;21006;-49
2021/06/29 07:17:42;;;;;;;3.97;3.77;;;23.40;93.20;;;;;;5009865;28;20639;-47
2021/06/29 07:20:12;;;;;;;6.17;5.23;;;23.50;92.80;;;;;;5005190;28;20627;-48
2021/06/29 07:22:40;;;;;;;4.10;3.80;;;23.60;92.80;;;;;;5007967;28;20644;-49
2021/06/29 07:25:08;;;;;;;3.90;3.60;;;23.60;92.70;;;;;;5067779;22;20685;-60
2021/06/29 07:27:36;;;;;;;4.27;3.60;;;23.50;92.80;;;;;;5050435;28;21155;-56
2021/06/29 07:30:04;;;;;;;10.53;5.50;;;23.50;93.10;;;;;;5050093;28;20665;-58
2021/06/29 07:32:31;;;;;;;15.23;5.20;;;23.50;93.00;;;;;;5052018;28;20623;-59
2021/06/29 07:34:59;;;;;;;5.13;4.73;;;23.90;92.60;;;;;;5051331;28;21020;-60
2021/06/29 07:37:27;;;;;;;4.73;4.33;;;23.90;92.30;;;;;;5051208;28;20650;-59
2021/06/29 07:39:55;;;;;;;4.00;3.70;;;23.90;92.40;;;;;;5050392;28;20725;-58
2021/06/29 07:42:22;;;;;;;8.57;3.50;;;23.90;92.50;;;;;;5051366;28;20649;-58
2021/06/29 07:44:49;;;;;;;6.57;3.93;;;23.80;92.50;;;;;;5051513;28;20658;-58
2021/06/29 07:47:17;;;;;;;5.50;3.80;;;23.80;92.30;;;;;;5051131;28;20614;-59
2021/06/29 07:49:44;;;;;;;8.83;4.17;;;23.90;92.10;;;;;;5051878;28;20622;-60
2021/06/29 07:52:11;;;;;;;10.63;3.90;;;23.90;91.90;;;;;;5051282;28;20649;-57
2021/06/29 07:54:40;;;;;;;5.03;3.50;;;23.90;92.00;;;;;;5051592;28;21209;-56
2021/06/29 07:57:08;;;;;;;5.57;4.43;;;23.90;92.00;;;;;;5050815;28;20697;-56
2021/06/29 07:59:35;;;;;;;4.80;3.63;;;23.90;91.80;;;;;;5033181;28;21499;-55
2021/06/29 08:02:03;;;;;;;3.30;3.10;;;23.80;91.70;;;;;;5050308;28;20664;-56
2021/06/29 08:04:30;;;;;;;3.77;3.47;;;23.80;91.70;;;;;;5050827;28;20731;-56
2021/06/29 08:06:57;;;;;;;3.53;3.00;;;23.60;91.80;;;;;;5050577;28;20642;-57
2021/06/29 08:09:24;;;;;;;3.20;3.00;;;23.70;91.80;;;;;;5050684;28;20665;-57
2021/06/29 08:11:53;;;;;;;5.60;4.27;;;23.70;91.50;;;;;;5050924;28;20686;-57
2021/06/29 08:14:20;;;;;;;8.10;4.03;;;23.80;91.80;;;;;;5050723;28;20678;-56
2021/06/29 08:16:48;;;;;;;4.70;4.30;;;24.10;91.70;;;;;;5050746;28;21084;-56
2021/06/29 08:19:15;;;;;;;5.63;3.60;;;24.00;91.30;;;;;;5050171;28;20634;-56
2021/06/29 08:21:42;;;;;;;3.70;3.40;;;23.90;91.30;;;;;;5051120;28;21009;-57
2021/06/29 08:24:10;;;;;;;7.30;4.03;;;24.00;91.50;;;;;;5053253;28;20657;-57
2021/06/29 08:26:37;;;;;;;4.20;3.90;;;24.10;91.10;;;;;;5053667;28;21000;-57
2021/06/29 08:29:06;;;;;;;3.77;3.47;;;24.00;91.20;;;;;;5054460;28;20654;-56
2021/06/29 08:31:33;;;;;;;4.87;3.80;;;23.90;91.40;;;;;;5054017;28;20683;-57
2021/06/29 08:34:00;;;;;;;5.80;4.40;;;23.90;91.60;;;;;;5052953;28;20697;-57
2021/06/29 08:36:28;;;;;;;5.60;4.27;;;24.00;91.50;;;;;;5054475;28;20694;-57
2021/06/29 08:38:55;;;;;;;4.67;4.27;;;24.00;91.80;;;;;;5054397;28;20657;-57
2021/06/29 08:41:22;;;;;;;21.23;19.33;;;24.10;91.40;;;;;;5053943;28;20718;-55
2021/06/29 08:43:50;;;;;;;4.97;4.57;;;24.00;91.40;;;;;;5052360;28;20703;-56
2021/06/29 08:46:19;;;;;;;5.63;5.10;;;24.10;91.30;;;;;;5054183;28;20629;-57
2021/06/29 08:48:46;;;;;;;4.93;4.43;;;24.20;91.20;;;;;;5053756;28;20654;-57
2021/06/29 08:51:14;;;;;;;5.03;4.40;;;24.40;90.90;;;;;;5053711;28;20650;-58
2021/06/29 08:53:41;;;;;;;5.20;4.70;;;24.40;90.80;;;;;;5053885;28;20968;-58
2021/06/29 08:56:15;;;;;;;5.70;5.23;;;24.50;90.60;;;;;;5053368;28;20696;-59
2021/06/29 08:58:42;;;;;;;8.83;5.07;;;24.40;90.40;;;;;;5053375;28;20645;-59
2021/06/29 09:01:09;;;;;;;5.70;5.13;;;24.20;90.70;;;;;;5053697;28;20672;-59
2021/06/29 09:03:38;;;;;;;7.73;6.13;;;24.10;90.90;;;;;;5053853;28;21040;-56
2021/06/29 09:06:07;;;;;;;5.50;5.10;;;24.20;91.10;;;;;;5053699;28;20633;-57
2021/06/29 09:08:38;;;;;;;7.40;5.77;;;24.10;90.90;;;;;;5054016;28;20668;-57
2021/06/29 09:11:16;;;;;;;5.30;4.90;;;24.10;91.10;;;;;;5054675;28;20645;-56
2021/06/29 09:14:01;;;;;;;6.40;5.90;;;24.30;91.00;;;;;;5054057;28;20653;-56
2021/06/29 09:16:29;;;;;;;6.33;5.83;;;24.60;90.40;;;;;;5054056;28;20696;-58
2021/06/29 09:18:58;;;;;;;5.30;4.80;;;24.70;90.20;;;;;;5054056;28;20687;-59
2021/06/29 09:21:25;;;;;;;5.70;5.30;;;24.70;90.00;;;;;;5053463;28;20656;-57
2021/06/29 09:23:53;;;;;;;6.17;5.63;;;24.80;89.60;;;;;;5053126;28;21241;-56
2021/06/29 09:26:22;;;;;;;6.20;5.70;;;24.90;88.50;;;;;;5053458;28;20629;-58
2021/06/29 09:28:53;;;;;;;5.20;4.80;;;25.10;88.20;;;;;;5053801;28;20647;-55
2021/06/29 09:31:21;;;;;;;4.93;4.53;;;25.40;87.40;;;;;;5053319;28;20630;-55
2021/06/29 09:33:52;;;;;;;6.70;4.90;;;25.50;85.80;;;;;;5052643;28;20700;-55
2021/06/29 09:36:21;;;;;;;5.57;5.07;;;25.60;84.60;;;;;;5051616;28;20728;-55
2021/06/29 09:38:49;;;;;;;6.43;5.97;;;25.70;84.20;;;;;;5051484;28;20990;-56
2021/06/29 09:41:18;;;;;;;4.83;4.53;;;25.60;84.20;;;;;;5053145;28;20664;-57
2021/06/29 09:43:46;;;;;;;5.93;5.43;;;25.50;83.80;;;;;;5052973;28;20674;-58
2021/06/29 09:46:14;;;;;;;6.80;6.27;;;25.50;84.50;;;;;;5052492;28;20652;-58
2021/06/29 09:48:43;;;;;;;7.07;6.57;;;25.50;84.50;;;;;;5052548;28;20629;-58
2021/06/29 09:51:14;;;;;;;7.13;6.43;;;25.40;84.40;;;;;;5052882;28;21471;-56
2021/06/29 09:53:43;;;;;;;6.10;5.70;;;25.30;84.40;;;;;;5052694;28;20626;-57
2021/06/29 09:56:12;;;;;;;7.03;6.50;;;25.30;85.20;;;;;;5052798;28;21346;-57
2021/06/29 09:58:41;;;;;;;7.33;6.73;;;25.20;84.40;;;;;;5052470;28;20661;-57
2021/06/29 10:01:08;;;;;;;6.23;5.73;;;25.20;84.40;;;;;;5052858;28;20637;-57
2021/06/29 10:03:36;;;;;;;5.73;5.30;;;25.20;85.10;;;;;;5052739;28;20989;-57
2021/06/29 10:06:15;;;;;;;5.60;4.67;;;25.40;83.00;;;;;;5052910;28;20665;-57
2021/06/29 10:08:44;;;;;;;5.00;4.60;;;25.10;82.50;;;;;;5052639;28;20985;-57
2021/06/29 10:11:14;;;;;;;5.63;5.13;;;25.20;85.00;;;;;;5052360;28;20637;-57
2021/06/29 10:13:43;;;;;;;8.23;5.47;;;25.30;83.60;;;;;;5052489;28;20656;-56
2021/06/29 10:16:11;;;;;;;6.00;5.60;;;25.30;83.90;;;;;;5052187;28;20622;-56
2021/06/29 10:18:40;;;;;;;6.57;5.97;;;25.10;83.20;;;;;;5051218;28;20686;-57
2021/06/29 10:21:19;;;;;;;6.97;6.37;;;25.20;83.90;;;;;;5052254;28;20646;-56
2021/06/29 10:23:48;;;;;;;5.97;5.50;;;25.20;84.40;;;;;;5051755;28;20797;-57
2021/06/29 10:26:15;;;;;;;4.90;4.50;;;25.20;83.80;;;;;;5051768;28;20668;-56
2021/06/29 10:28:43;;;;;;;6.00;5.60;;;25.20;81.90;;;;;;5050565;28;20634;-57
2021/06/29 10:31:16;;;;;;;4.57;4.17;;;25.20;83.30;;;;;;5052299;28;20638;-55
2021/06/29 10:33:43;;;;;;;5.50;4.97;;;25.30;83.50;;;;;;5052372;28;20657;-56
2021/06/29 10:36:11;;;;;;;6.83;6.30;;;25.40;82.50;;;;;;5052470;28;21166;-56
2021/06/29 10:38:38;;;;;;;6.90;6.37;;;25.30;81.30;;;;;;5051559;28;21315;-56
2021/06/29 10:41:07;;;;;;;6.00;5.60;;;25.40;80.80;;;;;;5051549;28;20889;-57
2021/06/29 10:43:35;;;;;;;6.57;6.00;;;25.40;81.50;;;;;;5052025;28;20655;-56
2021/06/29 10:46:02;;;;;;;5.67;5.27;;;25.40;81.40;;;;;;5050908;28;20665;-57
2021/06/29 10:48:29;;;;;;;5.67;5.20;;;25.50;81.40;;;;;;5052145;28;20657;-58
2021/06/29 10:50:57;;;;;;;5.17;4.77;;;25.70;81.40;;;;;;5051491;28;20665;-57
2021/06/29 10:53:38;;;;;;;4.83;4.53;;;25.70;80.10;;;;;;5052146;28;20626;-60
2021/06/29 10:56:08;;;;;;;5.47;5.07;;;25.80;80.40;;;;;;5052797;28;20622;-59
2021/06/29 10:58:37;;;;;;;5.27;4.97;;;25.80;77.70;;;;;;5051944;28;21299;-59
2021/06/29 11:01:28;;;;;;;5.17;4.77;;;25.70;78.50;;;;;;5052352;28;20684;-57
2021/06/29 11:03:57;;;;;;;5.70;5.30;;;25.90;79.30;;;;;;5052187;28;20654;-58
2021/06/29 11:06:42;;;;;;;5.90;5.40;;;25.80;78.70;;;;;;5033396;28;20723;-58
2021/06/29 11:09:10;;;;;;;4.97;4.40;;;25.80;78.00;;;;;;5032612;28;20648;-58
2021/06/29 11:11:39;;;;;;;5.57;5.17;;;25.80;77.90;;;;;;5050201;28;20673;-56
2021/06/29 11:14:28;;;;;;;5.53;5.03;;;25.80;77.60;;;;;;5050520;28;20844;-56
2021/06/29 11:16:57;;;;;;;5.47;5.07;;;26.00;78.50;;;;;;5050103;28;20707;-58
2021/06/29 11:19:58;;;;;;;5.20;4.90;;;26.00;78.00;;;;;;5051010;28;21174;-57
2021/06/29 11:22:48;;;;;;;7.53;5.13;;;26.00;76.50;;;;;;5051984;28;20624;-58
2021/06/29 11:25:16;;;;;;;7.50;6.80;;;26.10;77.50;;;;;;5051591;28;20662;-57
2021/06/29 11:28:05;;;;;;;4.77;4.47;;;26.00;76.90;;;;;;5051576;28;20621;-56
2021/06/29 11:31:01;;;;;;;5.60;5.30;;;26.00;77.70;;;;;;5051573;28;20630;-60
2021/06/29 11:33:33;;;;;;;5.40;4.90;;;26.00;77.80;;;;;;5051367;28;20629;-60
2021/06/29 11:36:00;;;;;;;5.90;4.93;;;26.00;77.60;;;;;;5051410;28;20614;-58
2021/06/29 11:38:35;;;;;;;4.67;4.37;;;26.00;77.10;;;;;;5051318;28;20686;-56
2021/06/29 11:41:27;;;;;;;5.20;4.80;;;26.10;75.50;;;;;;5051719;28;20644;-57
2021/06/29 11:43:59;;;;;;;4.50;4.10;;;26.20;76.20;;;;;;5051382;28;20711;-58
2021/06/29 11:46:49;;;;;;;5.57;3.83;;;26.30;76.10;;;;;;5052138;28;20614;-56
2021/06/29 11:49:16;;;;;;;4.57;4.30;;;26.20;73.30;;;;;;5050145;28;20676;-57
2021/06/29 11:51:51;;;;;;;5.63;5.13;;;26.10;73.90;;;;;;5051051;28;20633;-58
2021/06/29 11:54:29;;;;;;;7.00;5.03;;;26.20;75.50;;;;;;5051029;28;20703;-58
2021/06/29 11:56:56;;;;;;;9.23;8.47;;;26.20;74.90;;;;;;5052562;28;20629;-58
2021/06/29 11:59:28;;;;;;;11.03;10.23;;;26.20;73.70;;;;;;5057900;28;20685;-56
2021/06/29 12:02:01;;;;;;;5.83;5.43;;;26.30;74.60;;;;;;5057588;28;20663;-56
2021/06/29 12:04:28;;;;;;;5.73;5.23;;;26.40;72.60;;;;;;5057077;28;21022;-57
2021/06/29 12:07:00;;;;;;;5.87;5.47;;;26.40;71.70;;;;;;5057444;28;20664;-57
2021/06/29 12:09:31;;;;;;;5.93;5.33;;;26.30;71.80;;;;;;5057234;28;21181;-59
2021/06/29 12:12:20;;;;;;;9.57;4.97;;;26.20;71.30;;;;;;5057479;28;20654;-55
2021/06/29 12:14:58;;;;;;;5.70;5.30;;;26.20;71.70;;;;;;5056986;28;20689;-56
2021/06/29 12:17:25;;;;;;;6.40;4.90;;;26.20;72.00;;;;;;5057051;28;20625;-56
2021/06/29 12:19:57;;;;;;;6.07;5.30;;;26.30;73.60;;;;;;5058146;28;20690;-56
2021/06/29 12:22:31;;;;;;;5.60;5.10;;;26.30;72.70;;;;;;5057277;28;20618;-56
2021/06/29 12:24:59;;;;;;;5.20;4.90;;;26.30;72.70;;;;;;5056838;28;21038;-57
2021/06/29 12:27:26;;;;;;;5.40;4.90;;;26.40;73.50;;;;;;5057214;28;21244;-56
2021/06/29 12:29:55;;;;;;;7.37;5.40;;;26.40;72.50;;;;;;5057128;28;21174;-56
2021/06/29 12:32:25;;;;;;;4.93;4.63;;;26.30;72.10;;;;;;5057048;28;20692;-56
2021/06/29 12:34:53;;;;;;;5.30;5.00;;;26.20;71.20;;;;;;5057209;28;20654;-58
2021/06/29 12:37:20;;;;;;;5.30;4.80;;;26.10;71.00;;;;;;5056662;28;20622;-60
2021/06/29 12:39:48;;;;;;;7.47;4.50;;;26.00;71.20;;;;;;5055709;28;21030;-59
2021/06/29 12:42:15;;;;;;;5.57;5.17;;;26.10;73.10;;;;;;5057145;28;20699;-58
2021/06/29 12:44:43;;;;;;;4.70;4.30;;;26.10;72.30;;;;;;5056461;28;20783;-56
2021/06/29 12:47:15;;;;;;;5.40;5.00;;;26.10;73.30;;;;;;5040977;28;21191;-58
2021/06/29 12:49:42;;;;;;;4.60;4.20;;;26.20;73.50;;;;;;5036665;28;20816;-60
2021/06/29 12:52:11;;;;;;;4.70;4.40;;;26.20;71.20;;;;;;5036865;28;20622;-57
2021/06/29 12:54:39;;;;;;;5.37;5.03;;;26.10;73.50;;;;;;5036046;28;20647;-55
2021/06/29 12:57:07;;;;;;;5.80;5.23;;;26.10;73.70;;;;;;5036685;28;20627;-55
2021/06/29 12:59:35;;;;;;;5.50;5.10;;;26.20;72.80;;;;;;5036667;28;20705;-56